ADDS METAR Data INFO
IDs: Format: Raw Decoded Include TAF

Data at: 1003 UTC 12 Dec 2017

METAR for:KINF (Inverness Arpt, FL, US)
Text:KINF 120955Z AUTO 00000KT 10SM CLR 02/02 A3006 RMK AO2
Temperature: 2.0°C ( 36°F)
Dewpoint: 2.0°C ( 36°F) [RH = 100%]
Pressure (altimeter):30.06 inches Hg (1018.0 mb)
Winds:calm
Visibility:10 or more sm (16+ km)
Ceiling:at least 12,000 feet AGL
Clouds:sky clear below 12,000 feet AGL
QC Flag:automated observation with no human augmentation